Погода Саут-Пасаденана неделю

Калифорния, США

01 - 07 сентября
  • 01сентября
    Сегодня
    +17°
    +30°
    Ясно и безоблачно
    ВремяПогодаТемператураВлажностьДавлениеВетер, м/сВероятность осадков
    02:00Ясно и безоблачно+17°C75 %743 мм1.2 м/с2 %
    05:00Ясно и безоблачно+15°C82 %743 мм0.6 м/с2 %
    08:00Ясно и безоблачно+17°C76 %744 мм0.3 м/с2 %
    11:00Ясно и безоблачно+23°C47 %744 мм2.2 м/с2 %
    14:00Ясно и безоблачно+29°C34 %744 мм3.4 м/с2 %
    17:00Ясно и безоблачно+28°C36 %743 мм4.1 м/с2 %
    20:00Ясно и безоблачно+23°C54 %743 мм3.1 м/с2 %
    23:00Ясно и безоблачно+20°C69 %744 мм1.7 м/с2 %
  • 02сентября
    Среда
    +18°
    +30°
    Ясно и безоблачно
    ВремяПогодаТемператураВлажностьДавлениеВетер, м/сВероятность осадков
    02:00Ясно и безоблачно+19°C74 %744 мм0.8 м/с2 %
    05:00Ясно и безоблачно+18°C79 %744 мм0.3 м/с2 %
    08:00Ясно и безоблачно+19°C68 %744 мм0.1 м/с2 %
    11:00Ясно и безоблачно+24°C46 %745 мм2.0 м/с2 %
    14:00Ясно и безоблачно+29°C30 %744 мм3.2 м/с2 %
    17:00Ясно и безоблачно+29°C31 %743 мм4.3 м/с2 %
    20:00Ясно и безоблачно+24°C47 %743 мм3.2 м/с2 %
    23:00Ясно и безоблачно+22°C54 %743 мм1.6 м/с2 %
  • 03сентября
    Четверг
    +18°
    +30°
    Ясно и безоблачно
    ВремяПогодаТемператураВлажностьДавлениеВетер, м/сВероятность осадков
    02:00Ясно и безоблачно+20°C67 %743 мм0.9 м/с2 %
    05:00Ясно и безоблачно+18°C71 %743 мм0.3 м/с2 %
    08:00Ясно и безоблачно+20°C72 %743 мм0.4 м/с2 %
    11:00Ясно и безоблачно+24°C46 %743 мм2.3 м/с2 %
    14:00Ясно и безоблачно+29°C37 %742 мм3.6 м/с2 %
    17:00Ясно и безоблачно+28°C42 %741 мм4.2 м/с2 %
    20:00Ясно и безоблачно+24°C59 %741 мм3.4 м/с2 %
    23:00Ясно и безоблачно+22°C67 %742 мм1.9 м/с2 %
  • 04сентября
    Пятница
    +18°
    +31°
    Ясно и безоблачно
    ВремяПогодаТемператураВлажностьДавлениеВетер, м/сВероятность осадков
    02:00Ясно и безоблачно+20°C79 %742 мм1.3 м/с2 %
    05:00Ясно и безоблачно+19°C86 %742 мм0.4 м/с2 %
    08:00Ясно и безоблачно+20°C75 %742 мм0.0 м/с2 %
    11:00Ясно и безоблачно+25°C49 %743 мм1.6 м/с2 %
    14:00Ясно и безоблачно+30°C32 %742 мм3.3 м/с2 %
    17:00Ясно и безоблачно+30°C31 %741 мм3.9 м/с2 %
    20:00Ясно и безоблачно+25°C58 %742 мм3.4 м/с2 %
    23:00Ясно и безоблачно+22°C70 %742 мм1.9 м/с2 %
  • 05сентября
    Суббота
    +21°
    +33°
    Ясно и безоблачно
    ВремяПогодаТемператураВлажностьДавлениеВетер, м/сВероятность осадков
    02:00Ясно и безоблачно+20°C82 %742 мм1.1 м/с2 %
    05:00Ясно и безоблачно+19°C84 %742 мм0.6 м/с6 %
    08:00Ясно и безоблачно+21°C68 %743 мм0.0 м/с12 %
    11:00Ясно и безоблачно+27°C36 %743 мм1.7 м/с14 %
    14:00Ясно и безоблачно+32°C22 %742 мм3.3 м/с21 %
    17:00Ясно и безоблачно+32°C23 %742 мм4.1 м/с21 %
    20:00Ясно и безоблачно+27°C50 %742 мм3.5 м/с19 %
    23:00Ясно и безоблачно+25°C61 %743 мм1.9 м/с21 %
  • 06сентября
    Воскресенье
    +19°
    +33°
    Ясно и безоблачно
    ВремяПогодаТемператураВлажностьДавлениеВетер, м/сВероятность осадков
    05:00Практически безоблачно+22°C77 %742 мм0.5 м/с35 %
    11:00Ясно и безоблачно+28°C48 %743 мм1.3 м/с40 %
    17:00Ясно и безоблачно+32°C47 %741 мм3.1 м/с38 %
    23:00Ясно и безоблачно+23°C55 %742 мм1.4 м/с26 %
  • 07сентября
    Понедельник
    +18°
    +32°
    Ясно и безоблачно
    ВремяПогодаТемператураВлажностьДавлениеВетер, м/сВероятность осадков
    05:00Ясно и безоблачно+20°C63 %742 мм1.4 м/с20 %
    11:00Ясно и безоблачно+28°C34 %743 мм2.2 м/с26 %
    17:00Ясно и безоблачно+29°C31 %741 мм3.0 м/с27 %
    23:00Ясно и безоблачно+21°C61 %741 мм1.4 м/с18 %
Мы используем cookies
Соглашаюсь